Time;durP1;ratioP1;P1;durP2;ratioP2;P2;SDS_P1;SDS_P2;PMS_P1;PMS_P2;Temp;Humidity;BMP_temperature;BMP_pressure;BME280_temperature;BME280_humidity;BME280_pressure;Samples;Min_cycle;Max_cycle;Signal;HPM_P1;HPM_P2
2022/10/29 00:00:22;;;;;;;;;6.25;5.25;;;;;;;;5036975;28;45288;-70
2022/10/29 00:02:47;;;;;;;;;7.25;6.50;;;;;;;;5036977;28;45438;-70
2022/10/29 00:05:13;;;;;;;;;9.33;7.00;;;;;;;;5038144;28;45511;-71
2022/10/29 00:07:38;;;;;;;;;9.75;8.75;;;;;;;;5040230;28;46219;-71
2022/10/29 00:10:03;;;;;;;;;10.00;10.00;;;;;;;;5040211;28;45163;-71
2022/10/29 00:12:28;;;;;;;;;9.00;8.33;;;;;;;;5039905;28;45417;-71
2022/10/29 00:14:54;;;;;;;;;8.50;8.50;;;;;;;;5040176;28;45332;-70
2022/10/29 00:17:19;;;;;;;;;9.67;9.33;;;;;;;;5040056;28;47256;-71
2022/10/29 00:19:44;;;;;;;;;14.33;7.67;;;;;;;;5040194;28;45192;-71
2022/10/29 00:22:09;;;;;;;;;12.50;9.75;;;;;;;;5040108;28;45419;-71
2022/10/29 00:24:35;;;;;;;;;9.67;9.67;;;;;;;;5040563;28;45230;-71
2022/10/29 00:27:00;;;;;;;;;13.25;9.75;;;;;;;;5051288;28;46231;-71
2022/10/29 00:29:25;;;;;;;;;5.75;5.75;;;;;;;;5059979;28;45450;-71
2022/10/29 00:31:50;;;;;;;;;12.00;9.67;;;;;;;;5060058;28;45296;-71
2022/10/29 00:34:15;;;;;;;;;11.67;10.67;;;;;;;;5060279;28;45340;-71
2022/10/29 00:36:41;;;;;;;;;15.00;11.00;;;;;;;;5059650;28;47125;-71
2022/10/29 00:39:06;;;;;;;;;11.25;11.25;;;;;;;;5059758;28;45327;-71
2022/10/29 00:41:31;;;;;;;;;16.00;12.00;;;;;;;;5060060;28;45260;-71
2022/10/29 00:44:15;;;;;;;;;16.67;12.00;;;;;;;;5058523;28;45506;-71
2022/10/29 00:46:42;;;;;;;;;18.00;11.33;;;;;;;;5059701;28;45461;-71
2022/10/29 00:49:08;;;;;;;;;15.67;14.33;;;;;;;;5059750;28;45379;-71
2022/10/29 00:51:34;;;;;;;;;22.67;18.33;;;;;;;;5059503;28;45334;-71
2022/10/29 00:54:07;;;;;;;;;20.00;16.33;;;;;;;;5059981;28;45310;-71
2022/10/29 00:56:34;;;;;;;;;20.00;19.67;;;;;;;;5059486;28;46633;-71
2022/10/29 00:59:00;;;;;;;;;26.00;17.00;;;;;;;;5059590;28;45351;-71
2022/10/29 01:01:25;;;;;;;;;9.67;9.33;;;;;;;;5050863;28;48378;-71
2022/10/29 01:03:51;;;;;;;;;20.33;14.33;;;;;;;;5039623;28;45380;-71
2022/10/29 01:06:17;;;;;;;;;19.67;16.33;;;;;;;;5039000;28;47075;-71
2022/10/29 01:08:42;;;;;;;;;20.67;19.00;;;;;;;;5039413;28;45201;-71
2022/10/29 01:11:07;;;;;;;;;22.33;17.00;;;;;;;;5039210;28;45455;-72
2022/10/29 01:13:50;;;;;;;;;16.33;13.33;;;;;;;;5039477;28;45311;-72
2022/10/29 01:16:37;;;;;;;;;22.33;20.33;;;;;;;;5038412;28;46716;-72
2022/10/29 01:19:13;;;;;;;;;21.33;13.33;;;;;;;;5038630;28;45232;-72
2022/10/29 01:21:41;;;;;;;;;20.67;20.00;;;;;;;;5039041;28;45258;-72
2022/10/29 01:24:12;;;;;;;;;18.00;13.67;;;;;;;;5039230;28;45464;-72
2022/10/29 01:26:37;;;;;;;;;23.00;17.33;;;;;;;;5038809;28;45370;-73
2022/10/29 01:29:21;;;;;;;;;20.67;18.67;;;;;;;;5039118;28;45368;-72
2022/10/29 01:31:56;;;;;;;;;16.00;15.33;;;;;;;;5039111;28;45272;-72
2022/10/29 01:34:29;;;;;;;;;22.33;14.67;;;;;;;;5039830;28;45317;-72
2022/10/29 01:37:05;;;;;;;;;22.67;14.33;;;;;;;;5058866;28;46173;-72
2022/10/29 01:39:44;;;;;;;;;16.33;12.67;;;;;;;;5059322;28;45206;-73
2022/10/29 01:42:18;;;;;;;;;15.00;13.33;;;;;;;;5059421;28;45405;-72
2022/10/29 01:44:43;;;;;;;;;21.00;16.67;;;;;;;;5059112;28;45215;-72
2022/10/29 01:47:14;;;;;;;;;17.67;15.00;;;;;;;;5058661;28;46277;-71
2022/10/29 01:49:42;;;;;;;;;20.00;17.67;;;;;;;;5054608;28;45348;-70
2022/10/29 01:52:09;;;;;;;;;15.33;14.00;;;;;;;;5038576;28;45433;-71
2022/10/29 01:54:38;;;;;;;;;22.67;15.00;;;;;;;;5038960;28;45351;-71
2022/10/29 01:57:23;;;;;;;;;14.33;12.67;;;;;;;;5038478;28;46194;-71
2022/10/29 01:59:48;;;;;;;;;15.67;14.00;;;;;;;;5037589;28;45426;-71
2022/10/29 02:02:49;;;;;;;;;11.67;11.00;;;;;;;;5038350;28;45418;-71
2022/10/29 02:05:21;;;;;;;;;16.33;15.33;;;;;;;;4996664;28;45258;-71
2022/10/29 02:07:53;;;;;;;;;16.00;14.33;;;;;;;;4995326;28;46293;-71
2022/10/29 02:10:18;;;;;;;;;21.67;16.67;;;;;;;;4995436;28;45397;-71
2022/10/29 02:12:48;;;;;;;;;16.33;14.33;;;;;;;;4996079;28;45673;-71
2022/10/29 02:15:17;;;;;;;;;15.00;15.00;;;;;;;;4996038;28;45452;-71
2022/10/29 02:17:42;;;;;;;;;23.67;19.00;;;;;;;;4996344;28;45696;-71
2022/10/29 02:20:09;;;;;;;;;19.33;17.00;;;;;;;;4995908;28;45532;-71
2022/10/29 02:22:35;;;;;;;;;23.67;18.33;;;;;;;;4996128;28;45435;-71
2022/10/29 02:25:01;;;;;;;;;14.67;14.33;;;;;;;;5007475;28;45251;-71
2022/10/29 02:27:26;;;;;;;;;30.33;19.00;;;;;;;;5014698;28;47244;-71
2022/10/29 02:29:51;;;;;;;;;19.33;18.00;;;;;;;;5016092;28;45333;-71
2022/10/29 02:32:17;;;;;;;;;19.00;18.00;;;;;;;;5015899;28;45514;-71
2022/10/29 02:34:42;;;;;;;;;19.67;14.33;;;;;;;;5016034;28;45467;-71
2022/10/29 02:37:07;;;;;;;;;23.00;21.67;;;;;;;;5015186;28;46410;-71
2022/10/29 02:39:33;;;;;;;;;23.33;20.67;;;;;;;;5029596;28;45475;-71
2022/10/29 02:41:58;;;;;;;;;30.00;20.00;;;;;;;;5037537;28;45440;-71
2022/10/29 02:44:23;;;;;;;;;19.67;18.67;;;;;;;;5038131;28;45306;-71
2022/10/29 02:46:48;;;;;;;;;17.33;14.33;;;;;;;;5037737;28;47215;-71
2022/10/29 02:49:14;;;;;;;;;21.33;17.67;;;;;;;;5037442;28;45312;-71
2022/10/29 02:51:39;;;;;;;;;17.33;16.33;;;;;;;;5037819;28;45368;-71
2022/10/29 02:54:04;;;;;;;;;28.33;21.00;;;;;;;;5037701;28;45404;-71
2022/10/29 02:56:29;;;;;;;;;22.67;16.33;;;;;;;;5036896;28;46425;-71
2022/10/29 02:58:54;;;;;;;;;26.00;22.00;;;;;;;;5037643;28;45291;-71
2022/10/29 03:01:20;;;;;;;;;24.67;18.67;;;;;;;;5037401;28;45158;-71
2022/10/29 03:03:45;;;;;;;;;21.67;21.67;;;;;;;;5037749;28;45744;-71
2022/10/29 03:06:14;;;;;;;;;21.33;19.67;;;;;;;;5037467;28;45496;-71
2022/10/29 03:08:39;;;;;;;;;28.00;21.00;;;;;;;;5037309;28;45431;-71
2022/10/29 03:11:04;;;;;;;;;22.33;17.67;;;;;;;;5037406;28;45534;-70
2022/10/29 03:13:29;;;;;;;;;25.67;20.00;;;;;;;;5036848;28;45632;-71
2022/10/29 03:15:54;;;;;;;;;34.67;21.33;;;;;;;;5037098;28;46641;-71
2022/10/29 03:18:20;;;;;;;;;26.00;20.00;;;;;;;;5037461;28;45337;-71
2022/10/29 03:20:46;;;;;;;;;26.33;20.67;;;;;;;;5037385;28;45410;-71
2022/10/29 03:23:11;;;;;;;;;23.33;17.67;;;;;;;;5037371;28;45439;-71
2022/10/29 03:25:37;;;;;;;;;30.67;22.33;;;;;;;;5036680;28;45932;-71
2022/10/29 03:28:02;;;;;;;;;28.33;18.67;;;;;;;;5037184;28;45226;-71
2022/10/29 03:30:27;;;;;;;;;22.33;21.33;;;;;;;;5037078;28;45230;-71
2022/10/29 03:32:52;;;;;;;;;30.00;21.33;;;;;;;;5037336;28;45415;-70
2022/10/29 03:35:17;;;;;;;;;22.00;19.00;;;;;;;;5037149;28;45445;-71
2022/10/29 03:37:43;;;;;;;;;21.00;18.33;;;;;;;;5036623;28;45384;-71
2022/10/29 03:40:08;;;;;;;;;18.33;18.33;;;;;;;;5039990;28;45433;-71
2022/10/29 03:42:34;;;;;;;;;20.67;17.33;;;;;;;;5041049;28;45493;-71
2022/10/29 03:44:59;;;;;;;;;17.67;16.00;;;;;;;;5040297;28;46412;-71
2022/10/29 03:47:25;;;;;;;;;21.00;19.00;;;;;;;;5051329;28;45365;-71
2022/10/29 03:49:50;;;;;;;;;18.67;15.33;;;;;;;;5060595;28;45486;-71
2022/10/29 03:52:15;;;;;;;;;18.00;17.33;;;;;;;;5061072;28;45421;-71
2022/10/29 03:54:41;;;;;;;;;20.33;18.67;;;;;;;;5060233;28;46410;-71
2022/10/29 03:57:06;;;;;;;;;20.33;18.67;;;;;;;;5060460;28;45514;-71
2022/10/29 03:59:31;;;;;;;;;29.00;18.67;;;;;;;;5060657;28;45297;-71
2022/10/29 04:01:56;;;;;;;;;15.67;15.33;;;;;;;;5059259;28;45407;-71
2022/10/29 04:04:21;;;;;;;;;18.33;17.00;;;;;;;;5060492;28;45555;-71
2022/10/29 04:06:47;;;;;;;;;18.00;16.00;;;;;;;;5060262;28;45379;-71
2022/10/29 04:09:12;;;;;;;;;18.33;18.00;;;;;;;;5060182;28;45346;-71
2022/10/29 04:11:37;;;;;;;;;19.33;15.00;;;;;;;;5060751;28;45422;-71
2022/10/29 04:14:02;;;;;;;;;12.67;9.00;;;;;;;;5059813;28;45405;-71
2022/10/29 04:16:28;;;;;;;;;22.33;18.00;;;;;;;;5060074;28;45358;-71
2022/10/29 04:18:53;;;;;;;;;21.33;18.00;;;;;;;;5060380;28;45315;-71
2022/10/29 04:21:18;;;;;;;;;17.00;14.67;;;;;;;;5059364;28;45413;-71
2022/10/29 04:23:43;;;;;;;;;25.00;19.00;;;;;;;;5059846;28;46285;-71
2022/10/29 04:26:08;;;;;;;;;16.33;14.33;;;;;;;;5059746;28;45424;-71
2022/10/29 04:28:33;;;;;;;;;15.00;12.67;;;;;;;;5060299;28;45306;-71
2022/10/29 04:31:02;;;;;;;;;23.00;18.00;;;;;;;;5060374;28;45324;-71
2022/10/29 04:33:27;;;;;;;;;17.33;16.67;;;;;;;;5059976;28;46835;-71
2022/10/29 04:35:53;;;;;;;;;13.50;13.25;;;;;;;;5058737;28;45192;-71
2022/10/29 04:38:19;;;;;;;;;22.00;17.00;;;;;;;;5059611;28;45417;-71
2022/10/29 04:40:44;;;;;;;;;18.00;15.67;;;;;;;;5060162;28;45236;-70
2022/10/29 04:43:09;;;;;;;;;22.33;16.33;;;;;;;;5059727;28;46464;-70
2022/10/29 04:45:34;;;;;;;;;20.67;17.00;;;;;;;;5059688;28;45210;-70
2022/10/29 04:48:03;;;;;;;;;11.33;9.67;;;;;;;;5059870;28;45425;-70
2022/10/29 04:50:29;;;;;;;;;17.67;14.00;;;;;;;;5058714;28;45360;-70
2022/10/29 04:53:01;;;;;;;;;17.67;15.00;;;;;;;;5050710;28;46071;-70
2022/10/29 04:55:27;;;;;;;;;17.67;15.33;;;;;;;;5039405;28;45466;-70
2022/10/29 04:57:52;;;;;;;;;20.00;12.00;;;;;;;;5039452;28;45841;-71
2022/10/29 05:00:18;;;;;;;;;17.00;13.67;;;;;;;;5039756;28;45289;-71
2022/10/29 05:02:50;;;;;;;;;22.33;17.00;;;;;;;;5038988;28;46539;-71
2022/10/29 05:05:16;;;;;;;;;16.33;15.33;;;;;;;;5039120;28;45547;-71
2022/10/29 05:07:41;;;;;;;;;17.33;15.00;;;;;;;;5039574;28;45313;-71
2022/10/29 05:10:07;;;;;;;;;20.67;16.67;;;;;;;;5057083;28;45248;-71
2022/10/29 05:12:32;;;;;;;;;18.33;14.67;;;;;;;;5059185;28;47000;-71
2022/10/29 05:14:57;;;;;;;;;19.67;15.33;;;;;;;;5058961;28;45442;-71
2022/10/29 05:17:22;;;;;;;;;21.33;18.00;;;;;;;;5059310;28;45328;-71
2022/10/29 05:19:47;;;;;;;;;19.00;16.67;;;;;;;;5059596;28;45456;-71
2022/10/29 05:22:13;;;;;;;;;14.67;14.33;;;;;;;;5057531;28;47478;-72
2022/10/29 05:24:38;;;;;;;;;20.00;16.33;;;;;;;;5058898;28;45374;-72
2022/10/29 05:27:06;;;;;;;;;20.67;16.67;;;;;;;;5038081;28;45384;-72
2022/10/29 05:29:32;;;;;;;;;17.67;15.33;;;;;;;;5039273;28;45547;-72
2022/10/29 05:31:57;;;;;;;;;15.00;15.00;;;;;;;;5039118;28;46359;-71
2022/10/29 05:34:22;;;;;;;;;18.00;15.00;;;;;;;;5038821;28;45233;-72
2022/10/29 05:36:47;;;;;;;;;18.67;15.67;;;;;;;;5038943;28;45187;-72
2022/10/29 05:39:13;;;;;;;;;18.00;13.67;;;;;;;;5038754;28;45284;-71
2022/10/29 05:41:38;;;;;;;;;23.67;16.00;;;;;;;;5038126;28;46049;-71
2022/10/29 05:44:03;;;;;;;;;17.00;15.00;;;;;;;;5038936;28;45527;-71
2022/10/29 05:46:28;;;;;;;;;17.00;17.00;;;;;;;;5038783;28;45207;-71
2022/10/29 05:48:54;;;;;;;;;13.75;12.75;;;;;;;;5038904;28;45580;-71
2022/10/29 05:51:19;;;;;;;;;13.33;11.00;;;;;;;;5038334;28;46324;-70
2022/10/29 05:53:45;;;;;;;;;13.00;12.67;;;;;;;;5038548;28;45239;-71
2022/10/29 05:56:10;;;;;;;;;15.00;11.67;;;;;;;;5038568;28;45442;-71
2022/10/29 05:58:36;;;;;;;;;18.67;17.00;;;;;;;;5043657;28;45286;-71
2022/10/29 06:01:04;;;;;;;;;21.00;17.67;;;;;;;;5058324;28;45358;-71
2022/10/29 06:03:29;;;;;;;;;12.67;11.00;;;;;;;;5058116;28;45834;-71
2022/10/29 06:05:54;;;;;;;;;22.33;17.67;;;;;;;;5058495;28;45201;-71
2022/10/29 06:08:20;;;;;;;;;21.67;14.67;;;;;;;;5058935;28;45450;-71
2022/10/29 06:10:45;;;;;;;;;17.00;13.00;;;;;;;;5058087;28;46552;-71
2022/10/29 06:13:10;;;;;;;;;15.50;14.00;;;;;;;;5058396;28;45518;-71
2022/10/29 06:15:35;;;;;;;;;20.50;11.75;;;;;;;;5049228;28;45386;-71
2022/10/29 06:18:01;;;;;;;;;11.25;11.25;;;;;;;;5038644;28;45766;-71
2022/10/29 06:20:26;;;;;;;;;11.75;11.50;;;;;;;;5038290;28;46496;-71
2022/10/29 06:22:55;;;;;;;;;14.67;14.33;;;;;;;;5038109;28;45349;-71
2022/10/29 06:25:20;;;;;;;;;15.25;12.00;;;;;;;;5038099;28;45247;-71
2022/10/29 06:27:45;;;;;;;;;18.33;14.33;;;;;;;;5038176;28;45213;-71
2022/10/29 06:30:11;;;;;;;;;19.67;14.33;;;;;;;;5037664;28;45453;-70
2022/10/29 06:32:36;;;;;;;;;18.50;14.75;;;;;;;;5038574;28;45351;-71
2022/10/29 06:35:01;;;;;;;;;18.67;17.00;;;;;;;;5058041;28;45371;-71
2022/10/29 06:37:28;;;;;;;;;16.75;15.25;;;;;;;;5058300;28;45380;-71
2022/10/29 06:39:53;;;;;;;;;20.33;15.33;;;;;;;;5057551;28;47126;-71
2022/10/29 06:42:18;;;;;;;;;16.00;12.75;;;;;;;;5057939;28;45387;-71
2022/10/29 06:44:44;;;;;;;;;16.50;12.25;;;;;;;;5057974;28;45407;-71
2022/10/29 06:47:09;;;;;;;;;21.00;13.00;;;;;;;;5058105;28;45275;-71
2022/10/29 06:49:34;;;;;;;;;10.33;9.67;;;;;;;;5044530;28;45405;-71
2022/10/29 06:51:59;;;;;;;;;17.67;17.67;;;;;;;;5037185;28;45452;-71
2022/10/29 06:54:24;;;;;;;;;14.33;12.67;;;;;;;;5037849;28;45494;-71
2022/10/29 06:56:50;;;;;;;;;17.67;15.00;;;;;;;;5037668;28;45372;-71
2022/10/29 06:59:15;;;;;;;;;18.67;13.00;;;;;;;;5037280;28;45454;-71
2022/10/29 07:01:40;;;;;;;;;18.00;15.00;;;;;;;;5037485;28;45520;-71
2022/10/29 07:04:05;;;;;;;;;16.00;13.00;;;;;;;;5036610;28;45323;-71
2022/10/29 07:06:31;;;;;;;;;12.33;11.33;;;;;;;;5037706;28;45331;-71
2022/10/29 07:08:56;;;;;;;;;19.67;15.00;;;;;;;;5037245;28;47043;-71
2022/10/29 07:11:21;;;;;;;;;15.50;13.00;;;;;;;;5035805;28;45548;-71
2022/10/29 07:13:47;;;;;;;;;18.25;13.00;;;;;;;;5036867;28;45295;-71
2022/10/29 07:16:12;;;;;;;;;14.67;14.67;;;;;;;;5037144;28;45295;-71
2022/10/29 07:18:37;;;;;;;;;17.00;15.67;;;;;;;;5037464;28;46383;-71
2022/10/29 07:21:03;;;;;;;;;12.67;11.33;;;;;;;;5037396;28;45430;-71
2022/10/29 07:23:28;;;;;;;;;16.33;12.00;;;;;;;;5055246;28;45311;-71
2022/10/29 07:25:53;;;;;;;;;17.67;12.33;;;;;;;;5057438;28;45190;-71
2022/10/29 07:28:22;;;;;;;;;17.33;15.67;;;;;;;;5056787;28;46239;-71
2022/10/29 07:30:48;;;;;;;;;14.67;12.00;;;;;;;;5057277;28;45377;-71
2022/10/29 07:33:13;;;;;;;;;12.33;12.33;;;;;;;;5057259;28;45329;-71
2022/10/29 07:35:39;;;;;;;;;18.00;14.33;;;;;;;;5057304;28;45445;-71
2022/10/29 07:38:05;;;;;;;;;14.67;12.33;;;;;;;;5055972;28;45429;-71
2022/10/29 07:40:31;;;;;;;;;18.00;15.33;;;;;;;;5056641;28;45255;-70
2022/10/29 07:42:56;;;;;;;;;13.33;12.67;;;;;;;;5057197;28;45425;-71
2022/10/29 07:45:21;;;;;;;;;11.00;9.33;;;;;;;;5057446;28;45252;-72
2022/10/29 07:47:47;;;;;;;;;19.00;11.25;;;;;;;;5056769;28;45277;-72
2022/10/29 07:50:12;;;;;;;;;12.00;10.33;;;;;;;;5056910;28;45309;-72
2022/10/29 07:52:40;;;;;;;;;14.00;13.00;;;;;;;;5056719;28;45412;-72
2022/10/29 07:55:06;;;;;;;;;17.33;13.00;;;;;;;;5056450;28;45300;-73
2022/10/29 07:57:31;;;;;;;;;14.67;12.67;;;;;;;;5036554;28;46995;-73
2022/10/29 07:59:56;;;;;;;;;19.33;12.00;;;;;;;;5036790;28;45299;-72
2022/10/29 08:02:21;;;;;;;;;13.67;11.67;;;;;;;;5036720;28;45383;-72
2022/10/29 08:04:46;;;;;;;;;12.33;11.33;;;;;;;;5037061;28;45323;-68
2022/10/29 08:07:12;;;;;;;;;20.00;14.00;;;;;;;;5036271;28;46166;-72
2022/10/29 08:09:37;;;;;;;;;12.00;11.33;;;;;;;;5036800;28;45427;-74
2022/10/29 08:12:03;;;;;;;;;15.67;14.00;;;;;;;;5050641;28;45453;-73
2022/10/29 08:14:29;;;;;;;;;12.67;12.33;;;;;;;;5056932;28;45419;-73
2022/10/29 08:16:54;;;;;;;;;20.33;14.00;;;;;;;;5056412;28;46008;-72
2022/10/29 08:19:19;;;;;;;;;14.67;11.33;;;;;;;;5056312;28;45389;-70
2022/10/29 08:21:45;;;;;;;;;19.33;14.33;;;;;;;;5056970;28;45888;-68
2022/10/29 08:24:11;;;;;;;;;13.33;12.00;;;;;;;;5056207;28;45469;-68
2022/10/29 08:26:36;;;;;;;;;15.67;14.33;;;;;;;;5058091;28;46300;-67
2022/10/29 08:29:01;;;;;;;;;13.33;13.33;;;;;;;;5050672;28;45274;-71
2022/10/29 08:31:26;;;;;;;;;13.33;12.00;;;;;;;;5039814;28;45588;-71
2022/10/29 08:33:51;;;;;;;;;18.67;14.00;;;;;;;;5039422;28;45341;-72
2022/10/29 08:36:17;;;;;;;;;18.00;12.00;;;;;;;;5041769;28;45715;-72
2022/10/29 08:38:42;;;;;;;;;14.00;13.33;;;;;;;;5057805;28;45287;-71
2022/10/29 08:41:10;;;;;;;;;17.33;15.67;;;;;;;;5059619;28;45245;-71
2022/10/29 08:43:38;;;;;;;;;14.33;11.33;;;;;;;;5058803;28;45378;-71
2022/10/29 08:46:03;;;;;;;;;13.33;11.67;;;;;;;;5039411;28;45719;-73
2022/10/29 08:48:32;;;;;;;;;14.67;12.67;;;;;;;;5039326;28;45373;-71
2022/10/29 08:51:00;;;;;;;;;14.67;13.33;;;;;;;;5039837;28;45335;-72
2022/10/29 08:53:33;;;;;;;;;12.67;11.00;;;;;;;;5039671;28;45556;-71
2022/10/29 08:55:58;;;;;;;;;18.67;15.67;;;;;;;;5058024;28;46128;-71
2022/10/29 08:58:42;;;;;;;;;12.33;12.33;;;;;;;;5059412;28;45275;-71
2022/10/29 09:01:09;;;;;;;;;12.00;10.67;;;;;;;;5055621;28;45520;-72
2022/10/29 09:03:34;;;;;;;;;20.00;20.00;;;;;;;;5059003;28;45498;-72
2022/10/29 09:06:00;;;;;;;;;20.33;14.00;;;;;;;;5058504;28;45447;-72
2022/10/29 09:08:44;;;;;;;;;14.33;12.00;;;;;;;;5057396;28;45469;-73
2022/10/29 09:11:22;;;;;;;;;17.67;12.00;;;;;;;;5058649;28;45328;-71
2022/10/29 09:14:06;;;;;;;;;12.33;11.33;;;;;;;;5055741;28;45517;-70
2022/10/29 09:16:31;;;;;;;;;15.33;12.67;;;;;;;;5051091;28;45438;-72
2022/10/29 09:19:00;;;;;;;;;11.00;11.00;;;;;;;;5058545;28;45542;-71
2022/10/29 09:21:28;;;;;;;;;13.00;10.67;;;;;;;;5059019;28;45337;-71
2022/10/29 09:24:07;;;;;;;;;9.33;9.33;;;;;;;;5059643;28;45360;-71
2022/10/29 09:27:02;;;;;;;;;8.67;8.67;;;;;;;;5059176;28;46987;-72
2022/10/29 09:29:45;;;;;;;;;12.67;9.00;;;;;;;;4995741;28;45458;-72
2022/10/29 09:32:15;;;;;;;;;16.33;15.33;;;;;;;;4997102;28;45431;-71
2022/10/29 09:34:48;;;;;;;;;12.00;9.00;;;;;;;;4997362;28;45360;-72
2022/10/29 09:37:16;;;;;;;;;19.33;13.33;;;;;;;;4996327;28;45380;-72
2022/10/29 09:39:42;;;;;;;;;14.33;11.67;;;;;;;;4996411;28;45367;-71
2022/10/29 09:42:11;;;;;;;;;12.00;11.67;;;;;;;;4996756;28;45583;-72
2022/10/29 09:44:40;;;;;;;;;14.33;13.33;;;;;;;;4996965;28;45516;-72
2022/10/29 09:47:14;;;;;;;;;17.67;13.00;;;;;;;;4995884;28;46251;-71
2022/10/29 09:49:42;;;;;;;;;16.00;14.67;;;;;;;;4996986;28;45404;-71
2022/10/29 09:52:07;;;;;;;;;15.67;13.67;;;;;;;;4996626;28;45486;-68
2022/10/29 09:54:33;;;;;;;;;22.67;20.00;;;;;;;;4997002;28;45584;-68
2022/10/29 09:56:59;;;;;;;;;10.00;10.00;;;;;;;;4996393;28;46189;-70
2022/10/29 09:59:34;;;;;;;;;13.67;10.67;;;;;;;;4996317;28;45408;-70
2022/10/29 10:01:59;;;;;;;;;16.33;13.00;;;;;;;;4995679;28;45366;-72
2022/10/29 10:04:37;;;;;;;;;12.00;8.67;;;;;;;;4996666;28;45604;-71
2022/10/29 10:07:07;;;;;;;;;11.00;10.33;;;;;;;;5037623;28;46784;-70
2022/10/29 10:09:53;;;;;;;;;11.00;8.00;;;;;;;;5038238;28;45364;-71
2022/10/29 10:12:19;;;;;;;;;10.67;10.33;;;;;;;;5037580;28;45327;-69
2022/10/29 10:14:45;;;;;;;;;16.33;11.33;;;;;;;;5038129;28;45227;-70
2022/10/29 10:17:11;;;;;;;;;11.00;10.67;;;;;;;;5038088;28;46463;-71
2022/10/29 10:19:41;;;;;;;;;15.67;11.33;;;;;;;;5050245;28;45311;-71
2022/10/29 10:22:15;;;;;;;;;11.33;9.33;;;;;;;;5038061;28;45505;-71
2022/10/29 10:24:42;;;;;;;;;11.33;9.67;;;;;;;;5038134;28;45429;-71
2022/10/29 10:27:16;;;;;;;;;10.00;9.00;;;;;;;;5037659;28;46706;-71
2022/10/29 10:29:41;;;;;;;;;13.00;11.33;;;;;;;;5053068;28;45435;-70
2022/10/29 10:32:07;;;;;;;;;9.00;8.00;;;;;;;;5038006;28;45319;-70
2022/10/29 10:34:32;;;;;;;;;9.33;8.00;;;;;;;;5038087;28;45485;-70
2022/10/29 10:37:06;;;;;;;;;8.33;8.33;;;;;;;;5037615;28;45686;-71
2022/10/29 10:39:35;;;;;;;;;10.33;10.33;;;;;;;;5052636;28;45481;-70
2022/10/29 10:42:05;;;;;;;;;10.00;8.67;;;;;;;;5057983;28;45351;-70
2022/10/29 10:44:31;;;;;;;;;10.67;7.67;;;;;;;;5057728;28;45394;-72
2022/10/29 10:46:58;;;;;;;;;9.67;8.33;;;;;;;;5057604;28;46616;-71
2022/10/29 10:49:23;;;;;;;;;10.67;8.00;;;;;;;;5056584;28;45318;-70
2022/10/29 10:51:50;;;;;;;;;15.00;10.67;;;;;;;;5057714;28;45368;-69
2022/10/29 10:54:24;;;;;;;;;10.67;7.33;;;;;;;;5056808;28;45404;-70
2022/10/29 10:56:50;;;;;;;;;14.67;12.00;;;;;;;;5057880;28;46492;-70
2022/10/29 10:59:16;;;;;;;;;10.00;7.33;;;;;;;;5057539;28;45280;-71
2022/10/29 11:01:45;;;;;;;;;6.00;6.00;;;;;;;;5057592;28;45278;-70
2022/10/29 11:04:39;;;;;;;;;8.33;7.00;;;;;;;;5057813;28;45322;-70
2022/10/29 11:07:06;;;;;;;;;6.33;6.33;;;;;;;;5035375;28;46563;-72
2022/10/29 11:09:34;;;;;;;;;11.00;9.33;;;;;;;;5034289;28;45440;-71
2022/10/29 11:12:04;;;;;;;;;11.67;10.67;;;;;;;;5035551;28;45294;-69
2022/10/29 11:14:35;;;;;;;;;11.33;8.67;;;;;;;;5032724;28;45506;-69
2022/10/29 11:17:01;;;;;;;;;15.67;8.00;;;;;;;;5033772;28;45875;-69
2022/10/29 11:19:32;;;;;;;;;11.33;9.67;;;;;;;;5035316;28;45252;-70
2022/10/29 11:21:57;;;;;;;;;11.33;8.33;;;;;;;;5035236;28;45348;-70
2022/10/29 11:24:43;;;;;;;;;12.00;8.33;;;;;;;;5035083;28;45512;-70
2022/10/29 11:27:26;;;;;;;;;9.67;8.67;;;;;;;;5034415;28;45460;-70
2022/10/29 11:30:21;;;;;;;;;8.33;8.33;;;;;;;;5033429;28;45450;-71
2022/10/29 11:32:46;;;;;;;;;10.67;8.00;;;;;;;;4975572;28;45395;-70
2022/10/29 11:35:11;;;;;;;;;10.33;8.33;;;;;;;;4975690;28;45573;-70
2022/10/29 11:37:43;;;;;;;;;11.67;8.33;;;;;;;;4975141;28;47361;-69
2022/10/29 11:40:12;;;;;;;;;8.33;6.00;;;;;;;;4975100;28;45411;-70
2022/10/29 11:42:38;;;;;;;;;11.33;9.00;;;;;;;;4978019;28;45417;-70
2022/10/29 11:45:04;;;;;;;;;7.00;7.00;;;;;;;;4995032;28;45601;-67
2022/10/29 11:47:47;;;;;;;;;10.00;5.67;;;;;;;;5010923;28;47020;-69
2022/10/29 11:50:22;;;;;;;;;11.00;7.33;;;;;;;;5007371;28;45371;-66
2022/10/29 11:52:47;;;;;;;;;9.00;9.00;;;;;;;;4994803;28;45354;-71
2022/10/29 11:55:18;;;;;;;;;10.33;9.33;;;;;;;;4995043;28;45384;-71
2022/10/29 11:57:59;;;;;;;;;12.67;10.00;;;;;;;;4994818;28;46764;-72
2022/10/29 12:00:26;;;;;;;;;11.00;7.00;;;;;;;;4996264;28;45346;-66
2022/10/29 12:03:09;;;;;;;;;14.67;9.33;;;;;;;;4998532;28;45308;-67
2022/10/29 12:05:37;;;;;;;;;11.00;8.67;;;;;;;;4997706;28;45359;-68
2022/10/29 12:08:11;;;;;;;;;12.67;10.67;;;;;;;;4999575;28;45509;-67
2022/10/29 12:10:46;;;;;;;;;15.33;9.00;;;;;;;;5040325;28;45337;-68
2022/10/29 12:13:14;;;;;;;;;10.00;9.00;;;;;;;;5040272;28;45435;-71
2022/10/29 12:16:02;;;;;;;;;8.67;7.00;;;;;;;;5039899;28;45474;-75
2022/10/29 12:18:27;;;;;;;;;12.00;8.33;;;;;;;;5040188;28;45615;-67
2022/10/29 12:20:59;;;;;;;;;12.00;10.00;;;;;;;;5040070;28;45215;-65
2022/10/29 12:23:35;;;;;;;;;9.00;7.33;;;;;;;;5039777;28;45320;-67
2022/10/29 12:26:07;;;;;;;;;8.00;5.33;;;;;;;;5040066;28;45449;-68
2022/10/29 12:28:35;;;;;;;;;7.33;7.00;;;;;;;;5039933;28;46646;-74
2022/10/29 12:31:00;;;;;;;;;9.33;8.00;;;;;;;;5039540;28;45454;-78
2022/10/29 12:33:39;;;;;;;;;7.00;6.67;;;;;;;;5048145;28;45338;-70
2022/10/29 12:36:10;;;;;;;;;10.67;8.67;;;;;;;;5059763;28;45208;-75
2022/10/29 12:38:43;;;;;;;;;7.00;6.00;;;;;;;;5058458;28;45337;-79
2022/10/29 12:41:22;;;;;;;;;6.67;5.67;;;;;;;;5059484;28;45336;-69
2022/10/29 12:43:48;;;;;;;;;7.67;7.67;;;;;;;;5058330;28;45355;-70
2022/10/29 12:46:32;;;;;;;;;6.00;5.00;;;;;;;;5039358;28;45394;-72
2022/10/29 12:49:02;;;;;;;;;7.00;6.33;;;;;;;;5039186;28;46867;-72
2022/10/29 12:51:39;;;;;;;;;7.67;7.00;;;;;;;;5039255;28;45321;-77
2022/10/29 12:54:08;;;;;;;;;7.67;6.67;;;;;;;;5039692;28;45319;-65
2022/10/29 12:56:33;;;;;;;;;10.00;7.33;;;;;;;;5039921;28;45497;-81
2022/10/29 12:59:18;;;;;;;;;10.67;7.00;;;;;;;;5039653;28;45284;-69
2022/10/29 13:01:44;;;;;;;;;13.33;7.00;;;;;;;;5038750;28;45379;-69
2022/10/29 13:04:25;;;;;;;;;7.00;6.67;;;;;;;;5039419;28;45378;-72
2022/10/29 13:06:56;;;;;;;;;8.33;8.33;;;;;;;;5040002;28;45319;-79
2022/10/29 13:09:21;;;;;;;;;8.67;8.33;;;;;;;;5039126;28;46455;-70
2022/10/29 13:11:52;;;;;;;;;9.67;6.67;;;;;;;;5038388;28;45350;-67
2022/10/29 13:14:20;;;;;;;;;9.67;8.00;;;;;;;;5039294;28;45288;-72
2022/10/29 13:16:47;;;;;;;;;9.33;7.00;;;;;;;;5039046;28;45485;-68
2022/10/29 13:19:28;;;;;;;;;10.00;6.00;;;;;;;;5049961;28;47280;-75
2022/10/29 13:21:58;;;;;;;;;10.67;9.00;;;;;;;;5049185;28;45537;-79
2022/10/29 13:24:23;;;;;;;;;6.00;5.00;;;;;;;;5052013;28;45711;-75
2022/10/29 13:26:56;;;;;;;;;7.00;6.00;;;;;;;;5047228;28;45410;-67
2022/10/29 13:29:40;;;;;;;;;7.33;7.00;;;;;;;;5045623;28;46742;-71
2022/10/29 13:32:06;;;;;;;;;8.00;6.33;;;;;;;;5060822;28;45367;-76
2022/10/29 13:35:00;;;;;;;;;10.00;7.33;;;;;;;;5070060;28;45441;-75
2022/10/29 13:37:51;;;;;;;;;8.33;6.33;;;;;;;;5056284;28;45357;-72
2022/10/29 13:40:31;;;;;;;;;11.00;8.67;;;;;;;;5037793;28;46673;-72
2022/10/29 13:43:04;;;;;;;;;6.00;6.00;;;;;;;;5036616;28;45335;-75
2022/10/29 13:45:31;;;;;;;;;16.67;10.00;;;;;;;;5043555;28;47149;-68
2022/10/29 13:48:00;;;;;;;;;11.00;9.67;;;;;;;;5050021;28;45484;-69
2022/10/29 13:50:26;;;;;;;;;10.33;8.67;;;;;;;;5040140;28;45713;-75
2022/10/29 13:52:52;;;;;;;;;12.00;8.00;;;;;;;;5052474;28;45491;-69
2022/10/29 13:55:18;;;;;;;;;11.67;7.00;;;;;;;;5051931;28;45600;-71
2022/10/29 13:57:49;;;;;;;;;10.00;7.00;;;;;;;;5053908;28;45466;-72
2022/10/29 14:00:17;;;;;;;;;8.00;6.00;;;;;;;;5047123;28;45491;-71
2022/10/29 14:02:42;;;;;;;;;9.33;8.00;;;;;;;;5040011;28;45515;-77
2022/10/29 14:05:11;;;;;;;;;8.67;7.00;;;;;;;;5043876;28;45495;-67
2022/10/29 14:07:56;;;;;;;;;9.00;9.00;;;;;;;;5038277;28;45324;-67
2022/10/29 14:10:24;;;;;;;;;9.33;9.00;;;;;;;;5033842;28;46274;-69
2022/10/29 14:12:53;;;;;;;;;8.00;8.00;;;;;;;;5036812;28;46384;-71
2022/10/29 14:15:18;;;;;;;;;7.00;6.33;;;;;;;;5054648;28;45563;-74
2022/10/29 14:17:43;;;;;;;;;11.67;7.67;;;;;;;;5057953;28;45590;-74
2022/10/29 14:20:19;;;;;;;;;11.00;7.33;;;;;;;;5046257;28;46238;-72
2022/10/29 14:22:44;;;;;;;;;12.00;9.00;;;;;;;;5037430;28;45243;-73
2022/10/29 14:25:30;;;;;;;;;9.00;7.33;;;;;;;;5037744;28;45361;-79
2022/10/29 14:28:15;;;;;;;;;11.00;9.00;;;;;;;;5056558;28;45351;-74
2022/10/29 14:30:40;;;;;;;;;17.67;10.00;;;;;;;;5057797;28;45343;-76